createdAt,value
2018-11-01T00:01:32.633Z,13.60
2018-11-01T00:04:01.479Z,13.27
2018-11-01T00:06:29.542Z,12.23
2018-11-01T00:08:57.626Z,11.00
2018-11-01T00:11:25.813Z,13.30
2018-11-01T00:13:53.815Z,17.30
2018-11-01T00:16:21.861Z,18.70
2018-11-01T00:18:50.054Z,18.47
2018-11-01T00:21:18.054Z,15.10
2018-11-01T00:23:46.097Z,14.80
2018-11-01T00:26:14.405Z,13.20
2018-11-01T00:28:42.414Z,19.50
2018-11-01T00:31:10.403Z,12.83
2018-11-01T00:33:38.459Z,15.60
2018-11-01T00:36:06.537Z,13.13
2018-11-01T00:38:34.550Z,15.17
2018-11-01T00:41:02.623Z,14.53
2018-11-01T00:43:30.665Z,12.60
2018-11-01T00:45:58.987Z,15.03
2018-11-01T00:48:26.990Z,12.53
2018-11-01T00:50:55.038Z,15.87
2018-11-01T00:53:23.434Z,12.97
2018-11-01T00:55:51.439Z,10.90
2018-11-01T00:58:19.462Z,13.67
2018-11-01T01:00:47.502Z,11.50
2018-11-01T01:03:15.517Z,14.13
2018-11-01T01:05:43.592Z,14.67
2018-11-01T01:08:11.732Z,11.37
2018-11-01T01:10:39.729Z,19.40
2018-11-01T01:13:07.738Z,15.23
2018-11-01T01:15:35.884Z,13.13
2018-11-01T01:18:03.974Z,15.17
2018-11-01T01:20:32.053Z,19.90
2018-11-01T01:23:00.098Z,17.60
2018-11-01T01:25:28.226Z,15.77
2018-11-01T01:27:56.310Z,12.17
2018-11-01T01:30:24.696Z,20.67
2018-11-01T01:32:52.718Z,18.63
2018-11-01T01:35:20.715Z,14.03
2018-11-01T01:37:48.768Z,17.33
2018-11-01T01:40:16.781Z,12.97
2018-11-01T01:42:49.137Z,16.03
2018-11-01T01:45:17.149Z,20.30
2018-11-01T01:47:45.181Z,18.90
2018-11-01T01:50:14.665Z,27.90
2018-11-01T01:52:43.200Z,16.47
2018-11-01T01:55:11.253Z,16.93
2018-11-01T01:57:39.561Z,22.40
2018-11-01T02:00:11.499Z,26.63
2018-11-01T02:02:40.542Z,25.03
2018-11-01T02:05:09.037Z,22.67
2018-11-01T02:07:37.072Z,21.30
2018-11-01T02:10:06.239Z,22.13
2018-11-01T02:12:34.321Z,21.93
2018-11-01T02:15:02.363Z,21.33
2018-11-01T02:17:30.387Z,18.27
2018-11-01T02:19:58.394Z,23.97
2018-11-01T02:22:26.561Z,23.47
2018-11-01T02:24:54.581Z,17.00
2018-11-01T02:27:22.609Z,20.13
2018-11-01T02:29:50.652Z,22.67
2018-11-01T02:32:18.645Z,19.70
2018-11-01T02:34:46.870Z,20.87
2018-11-01T02:37:14.886Z,18.57
2018-11-01T02:39:42.930Z,20.30
2018-11-01T02:42:10.943Z,17.20
2018-11-01T02:44:38.984Z,17.07
2018-11-01T02:47:07.086Z,21.07
2018-11-01T02:49:35.093Z,19.30
2018-11-01T02:52:03.157Z,21.50
2018-11-01T02:54:31.238Z,17.77
2018-11-01T02:56:59.328Z,20.20
2018-11-01T02:59:27.616Z,18.70
2018-11-01T03:01:55.614Z,22.00
2018-11-01T03:04:23.681Z,19.00
2018-11-01T03:06:52.070Z,23.80
2018-11-01T03:09:20.079Z,18.70
2018-11-01T03:11:48.138Z,21.27
2018-11-01T03:14:16.183Z,17.70
2018-11-01T03:16:44.185Z,18.63
2018-11-01T03:19:12.186Z,16.23
2018-11-01T03:21:40.246Z,18.57
2018-11-01T03:24:08.251Z,22.97
2018-11-01T03:26:36.436Z,19.00
2018-11-01T03:29:04.875Z,16.40
2018-11-01T03:31:32.905Z,18.00
2018-11-01T03:34:01.082Z,19.17
2018-11-01T03:36:29.186Z,19.57
2018-11-01T03:38:57.337Z,23.50
2018-11-01T03:41:25.232Z,20.97
2018-11-01T03:43:53.386Z,21.17
2018-11-01T03:46:21.398Z,18.77
2018-11-01T03:48:49.410Z,18.83
2018-11-01T03:51:17.467Z,19.63
2018-11-01T03:53:45.507Z,15.80
2018-11-01T03:56:13.518Z,17.63
2018-11-01T03:58:41.563Z,17.63
2018-11-01T04:01:09.614Z,22.53
2018-11-01T04:03:38.038Z,22.53
2018-11-01T04:06:06.287Z,19.90
2018-11-01T04:08:34.296Z,16.70
2018-11-01T04:11:02.413Z,20.20
2018-11-01T04:13:30.431Z,24.60
2018-11-01T04:15:58.457Z,18.40
2018-11-01T04:18:26.466Z,23.50
2018-11-01T04:20:54.798Z,21.33
2018-11-01T04:23:22.949Z,18.90
2018-11-01T04:25:50.864Z,24.77
2018-11-01T04:28:19.170Z,21.63
2018-11-01T04:30:47.198Z,20.93
2018-11-01T04:33:15.234Z,21.93
2018-11-01T04:35:43.298Z,22.23
2018-11-01T04:38:11.304Z,19.00
2018-11-01T04:40:39.354Z,18.00
2018-11-01T04:43:07.419Z,20.23
2018-11-01T04:45:35.534Z,24.40
2018-11-01T04:48:05.008Z,18.40
2018-11-01T04:50:33.346Z,18.30
2018-11-01T04:53:01.335Z,23.00
2018-11-01T04:55:29.362Z,22.80
2018-11-01T04:57:57.410Z,30.30
2018-11-01T05:00:25.454Z,27.37
2018-11-01T05:02:53.762Z,31.97
2018-11-01T05:05:21.762Z,29.03
2018-11-01T05:07:49.768Z,29.30
2018-11-01T05:10:17.823Z,28.63
2018-11-01T05:12:45.883Z,35.50
2018-11-01T05:15:13.967Z,34.63
2018-11-01T05:17:42.063Z,32.80
2018-11-01T05:20:11.475Z,30.50
2018-11-01T05:22:39.674Z,27.83
2018-11-01T05:25:08.197Z,33.17
2018-11-01T05:27:36.245Z,30.17
2018-11-01T05:30:05.638Z,27.10
2018-11-01T05:32:33.633Z,25.80
2018-11-01T05:35:01.682Z,28.73
2018-11-01T05:37:29.735Z,22.77
2018-11-01T05:39:57.798Z,22.50
2018-11-01T05:42:26.495Z,24.77
2018-11-01T05:44:54.577Z,24.70
2018-11-01T05:47:22.658Z,22.63
2018-11-01T05:49:50.744Z,24.80
2018-11-01T05:52:19.134Z,24.17
2018-11-01T05:54:47.222Z,22.13
2018-11-01T05:57:15.308Z,21.80
2018-11-01T05:59:43.392Z,27.80
2018-11-01T06:02:16.844Z,29.37
2018-11-01T06:04:45.187Z,33.10
2018-11-01T06:07:13.483Z,26.60
2018-11-01T06:09:41.530Z,27.93
2018-11-01T06:12:09.677Z,25.57
2018-11-01T06:14:37.697Z,25.53
2018-11-01T06:17:05.701Z,21.97
2018-11-01T06:19:33.798Z,23.40
2018-11-01T06:22:01.806Z,28.73
2018-11-01T06:24:29.845Z,25.20
2018-11-01T06:26:57.851Z,27.43
2018-11-01T06:29:25.930Z,31.97
2018-11-01T06:31:53.977Z,25.40
2018-11-01T06:34:26.807Z,35.47
2018-11-01T06:36:54.994Z,27.10
2018-11-01T06:39:23.082Z,29.70
2018-11-01T06:41:52.389Z,25.00
2018-11-01T06:44:20.462Z,24.67
2018-11-01T06:46:48.457Z,27.70
2018-11-01T06:49:17.470Z,26.17
2018-11-01T06:51:45.530Z,25.13
2018-11-01T06:54:13.629Z,29.63
2018-11-01T06:56:41.717Z,24.37
2018-11-01T06:59:10.140Z,25.60
2018-11-01T07:01:38.189Z,26.97
2018-11-01T07:04:06.255Z,27.70
2018-11-01T07:06:34.705Z,33.57
2018-11-01T07:09:02.893Z,29.03
2018-11-01T07:11:30.974Z,29.93
2018-11-01T07:13:59.229Z,28.83
2018-11-01T07:16:27.238Z,33.57
2018-11-01T07:18:55.258Z,37.57
2018-11-01T07:21:23.373Z,32.43
2018-11-01T07:23:51.671Z,33.73
2018-11-01T07:26:19.720Z,31.73
2018-11-01T07:28:47.897Z,31.73
2018-11-01T07:31:15.974Z,34.00
2018-11-01T07:33:44.022Z,31.00
2018-11-01T07:36:12.062Z,33.70
2018-11-01T07:38:40.172Z,35.40
2018-11-01T07:41:08.229Z,45.37
2018-11-01T07:43:36.243Z,34.47
2018-11-01T07:46:04.330Z,34.17
2018-11-01T07:48:32.690Z,35.40
2018-11-01T07:51:00.708Z,38.17
2018-11-01T07:53:28.712Z,39.77
2018-11-01T07:55:56.871Z,39.33
2018-11-01T07:58:24.961Z,37.67
2018-11-01T08:00:52.998Z,38.67
2018-11-01T08:03:20.997Z,30.47
2018-11-01T08:05:49.076Z,36.93
2018-11-01T08:08:17.087Z,38.37
2018-11-01T08:10:45.096Z,31.57
2018-11-01T08:13:13.254Z,41.63
2018-11-01T08:15:41.299Z,37.73
2018-11-01T08:18:09.337Z,38.33
2018-11-01T08:20:37.427Z,42.27
2018-11-01T08:23:05.485Z,38.80
2018-11-01T08:25:33.574Z,36.90
2018-11-01T08:28:01.772Z,34.87
2018-11-01T08:30:29.803Z,38.73
2018-11-01T08:32:57.815Z,40.20
2018-11-01T08:35:25.866Z,40.27
2018-11-01T08:37:53.891Z,39.87
2018-11-01T08:40:22.038Z,32.57
2018-11-01T08:42:50.081Z,38.77
2018-11-01T08:45:18.144Z,39.13
2018-11-01T08:47:46.222Z,44.43
2018-11-01T08:50:15.060Z,34.73
2018-11-01T08:52:43.725Z,40.53
2018-11-01T08:55:12.113Z,37.00
2018-11-01T08:57:41.333Z,40.67
2018-11-01T09:00:10.333Z,38.10
2018-11-01T09:02:38.357Z,40.80
2018-11-01T09:05:07.132Z,36.20
2018-11-01T09:07:35.564Z,35.53
2018-11-01T09:10:04.202Z,40.23
2018-11-01T09:12:32.267Z,33.77
2018-11-01T09:15:00.310Z,33.90
2018-11-01T09:17:28.311Z,38.20
2018-11-01T09:19:56.356Z,36.97
2018-11-01T09:22:24.348Z,39.30
2018-11-01T09:24:52.399Z,34.33
2018-11-01T09:27:20.578Z,32.03
2018-11-01T09:29:48.578Z,37.27
2018-11-01T09:32:16.629Z,33.83
2018-11-01T09:34:44.754Z,37.40
2018-11-01T09:37:12.748Z,34.13
2018-11-01T09:39:40.812Z,29.43
2018-11-01T09:42:08.897Z,35.77
2018-11-01T09:44:36.933Z,42.53
2018-11-01T09:47:05.601Z,29.33
2018-11-01T09:49:33.354Z,35.83
2018-11-01T09:52:01.442Z,37.70
2018-11-01T09:54:29.822Z,30.30
2018-11-01T09:56:57.916Z,30.27
2018-11-01T09:59:26.094Z,31.77
2018-11-01T10:01:54.142Z,37.03
2018-11-01T10:04:22.607Z,34.13
2018-11-01T10:06:50.694Z,34.33
2018-11-01T10:09:18.653Z,32.77
2018-11-01T10:11:46.734Z,33.13
2018-11-01T10:14:14.888Z,29.90
2018-11-01T10:16:43.071Z,33.20
2018-11-01T10:19:11.321Z,37.80
2018-11-01T10:21:39.690Z,29.60
2018-11-01T10:24:08.027Z,31.37
2018-11-01T10:26:36.077Z,35.33
2018-11-01T10:29:04.253Z,57.33
2018-11-01T10:31:32.626Z,30.70
2018-11-01T10:34:00.958Z,32.00
2018-11-01T10:36:28.995Z,26.70
2018-11-01T10:38:57.090Z,36.37
2018-11-01T10:41:25.101Z,30.47
2018-11-01T10:43:53.250Z,29.60
2018-11-01T10:46:21.335Z,27.27
2018-11-01T10:48:49.424Z,32.17
2018-11-01T10:51:17.508Z,31.20
2018-11-01T10:53:45.923Z,29.27
2018-11-01T10:56:13.914Z,29.70
2018-11-01T10:58:41.930Z,31.70
2018-11-01T11:01:15.603Z,29.50
2018-11-01T11:03:43.662Z,24.97
2018-11-01T11:06:11.702Z,22.90
2018-11-01T11:08:39.832Z,45.73
2018-11-01T11:11:07.881Z,31.47
2018-11-01T11:13:35.885Z,32.83
2018-11-01T11:16:03.972Z,28.20
2018-11-01T11:18:32.062Z,24.50
2018-11-01T11:21:00.875Z,28.57
2018-11-01T11:23:28.565Z,30.10
2018-11-01T11:25:56.619Z,29.70
2018-11-01T11:28:24.661Z,22.93
2018-11-01T11:30:52.709Z,24.90
2018-11-01T11:33:20.759Z,43.10
2018-11-01T11:35:48.822Z,34.33
2018-11-01T11:38:16.844Z,22.80
2018-11-01T11:40:44.922Z,38.93
2018-11-01T11:43:13.054Z,20.10
2018-11-01T11:45:41.030Z,37.57
2018-11-01T11:48:09.075Z,26.50
2018-11-01T11:50:37.090Z,28.47
2018-11-01T11:53:05.155Z,24.63
2018-11-01T11:55:33.206Z,24.50
2018-11-01T11:58:01.231Z,29.33
2018-11-01T12:00:29.278Z,26.83
2018-11-01T12:02:57.346Z,28.10
2018-11-01T12:05:25.389Z,27.80
2018-11-01T12:07:53.370Z,20.67
2018-11-01T12:10:21.427Z,21.43
2018-11-01T12:12:49.605Z,31.20
2018-11-01T12:15:17.621Z,23.07
2018-11-01T12:17:46.525Z,18.70
2018-11-01T12:20:14.686Z,24.07
2018-11-01T12:22:42.698Z,21.60
2018-11-01T12:25:11.298Z,23.73
2018-11-01T12:27:39.649Z,33.93
2018-11-01T12:30:09.207Z,24.73
2018-11-01T12:32:37.247Z,20.63
2018-11-01T12:35:05.607Z,22.87
2018-11-01T12:37:33.591Z,23.57
2018-11-01T12:40:02.029Z,20.60
2018-11-01T12:42:30.107Z,19.67
2018-11-01T12:44:58.339Z,24.07
2018-11-01T12:47:26.388Z,29.13
2018-11-01T12:49:54.479Z,26.23
2018-11-01T12:52:22.670Z,20.77
2018-11-01T12:54:50.722Z,27.40
2018-11-01T12:57:18.786Z,21.57
2018-11-01T12:59:46.899Z,19.40
2018-11-01T13:02:14.941Z,22.30
2018-11-01T13:04:43.058Z,20.90
2018-11-01T13:07:11.145Z,23.37
2018-11-01T13:09:39.238Z,24.90
2018-11-01T13:12:07.276Z,25.67
2018-11-01T13:14:35.405Z,19.33
2018-11-01T13:17:03.462Z,20.97
2018-11-01T13:19:31.482Z,22.63
2018-11-01T13:21:59.546Z,25.73
2018-11-01T13:24:27.553Z,20.27
2018-11-01T13:26:55.612Z,20.50
2018-11-01T13:29:23.713Z,26.80
2018-11-01T13:31:51.795Z,28.90
2018-11-01T13:34:19.864Z,23.43
2018-11-01T13:36:48.172Z,23.23
2018-11-01T13:39:16.430Z,26.93
2018-11-01T13:41:44.521Z,21.90
2018-11-01T13:44:12.466Z,21.60
2018-11-01T13:46:40.559Z,19.40
2018-11-01T13:49:08.559Z,20.53
2018-11-01T13:51:36.858Z,19.23
2018-11-01T13:54:05.672Z,19.47
2018-11-01T13:56:34.240Z,17.80
2018-11-01T13:59:02.235Z,19.80
2018-11-01T14:01:30.342Z,17.70
2018-11-01T14:03:58.392Z,21.03
2018-11-01T14:06:26.583Z,20.37
2018-11-01T14:08:54.710Z,21.37
2018-11-01T14:11:22.750Z,16.87
2018-11-01T14:13:51.307Z,16.87
2018-11-01T14:16:19.257Z,16.57
2018-11-01T14:18:47.308Z,21.60
2018-11-01T14:21:15.431Z,23.63
2018-11-01T14:23:44.050Z,20.13
2018-11-01T14:26:12.333Z,21.07
2018-11-01T14:28:40.381Z,21.27
2018-11-01T14:31:08.467Z,18.43
2018-11-01T14:33:36.413Z,22.57
2018-11-01T14:36:05.091Z,26.80
2018-11-01T14:38:33.109Z,22.30
2018-11-01T14:41:01.422Z,25.50
2018-11-01T14:43:29.463Z,24.50
2018-11-01T14:45:57.491Z,25.10
2018-11-01T14:48:25.565Z,18.40
2018-11-01T14:50:53.654Z,25.73
2018-11-01T14:53:22.927Z,25.10
2018-11-01T14:55:51.569Z,22.30
2018-11-01T14:58:19.810Z,20.23
2018-11-01T15:00:46.425Z,21.47
2018-11-01T15:03:14.462Z,23.53
2018-11-01T15:05:42.514Z,27.70
2018-11-01T15:08:10.545Z,23.40
2018-11-01T15:10:38.636Z,23.17
2018-11-01T15:13:06.805Z,21.57
2018-11-01T15:15:34.815Z,21.07
2018-11-01T15:18:02.895Z,19.73
2018-11-01T15:20:31.051Z,19.83
2018-11-01T15:22:59.061Z,25.60
2018-11-01T15:25:27.137Z,24.30
2018-11-01T15:27:55.230Z,25.07
2018-11-01T15:30:23.306Z,30.80
2018-11-01T15:32:51.313Z,27.17
2018-11-01T15:35:19.336Z,26.93
2018-11-01T15:37:47.561Z,24.37
2018-11-01T15:40:15.642Z,27.10
2018-11-01T15:42:44.346Z,26.80
2018-11-01T15:45:13.350Z,32.07
2018-11-01T15:47:42.159Z,26.87
2018-11-01T15:50:11.466Z,26.87
2018-11-01T15:52:39.554Z,31.17
2018-11-01T15:55:08.257Z,24.67
2018-11-01T15:57:36.738Z,27.70
2018-11-01T16:00:05.018Z,29.13
2018-11-01T16:02:33.110Z,27.03
2018-11-01T16:05:01.196Z,20.10
2018-11-01T16:07:29.285Z,32.03
2018-11-01T16:09:57.354Z,26.70
2018-11-01T16:12:25.356Z,34.20
2018-11-01T16:14:53.366Z,27.63
2018-11-01T16:17:21.516Z,28.17
2018-11-01T16:19:49.658Z,26.10
2018-11-01T16:22:17.790Z,26.07
2018-11-01T16:24:45.880Z,26.77
2018-11-01T16:27:14.045Z,27.90
2018-11-01T16:29:42.041Z,28.40
2018-11-01T16:32:10.210Z,31.50
2018-11-01T16:34:38.230Z,27.87
2018-11-01T16:37:06.330Z,23.80
2018-11-01T16:39:34.481Z,20.97
2018-11-01T16:42:02.897Z,28.03
2018-11-01T16:44:30.890Z,25.77
2018-11-01T16:46:59.016Z,28.63
2018-11-01T16:49:27.232Z,24.13
2018-11-01T16:51:55.316Z,24.90
2018-11-01T16:54:23.410Z,24.93
2018-11-01T16:56:51.465Z,25.83
2018-11-01T16:59:19.539Z,28.47
2018-11-01T17:01:54.308Z,29.10
2018-11-01T17:04:22.387Z,25.27
2018-11-01T17:06:50.573Z,25.50
2018-11-01T17:09:18.634Z,23.87
2018-11-01T17:11:46.759Z,26.37
2018-11-01T17:14:14.930Z,26.17
2018-11-01T17:16:43.022Z,26.80
2018-11-01T17:19:11.403Z,24.87
2018-11-01T17:21:39.430Z,26.50
2018-11-01T17:24:07.572Z,26.97
2018-11-01T17:26:35.663Z,31.83
2018-11-01T17:29:03.750Z,33.50
2018-11-01T17:31:31.827Z,26.97
2018-11-01T17:33:59.982Z,34.57
2018-11-01T17:36:28.098Z,24.83
2018-11-01T17:38:56.992Z,39.03
2018-11-01T17:41:25.030Z,26.73
2018-11-01T17:43:53.082Z,27.73
2018-11-01T17:46:21.165Z,31.27
2018-11-01T17:48:49.238Z,24.53
2018-11-01T17:51:17.404Z,31.20
2018-11-01T17:53:45.506Z,27.87
2018-11-01T17:56:13.698Z,27.67
2018-11-01T17:58:41.722Z,28.57
2018-11-01T18:01:10.062Z,25.73
2018-11-01T18:03:38.150Z,27.30
2018-11-01T18:06:06.268Z,28.60
2018-11-01T18:08:34.376Z,29.33
2018-11-01T18:11:02.411Z,30.70
2018-11-01T18:13:30.485Z,22.43
2018-11-01T18:15:58.578Z,30.73
2018-11-01T18:18:26.610Z,20.53
2018-11-01T18:20:54.617Z,28.47
2018-11-01T18:23:22.767Z,22.00
2018-11-01T18:25:51.322Z,27.07
2018-11-01T18:28:20.225Z,23.50
2018-11-01T18:30:48.266Z,22.17
2018-11-01T18:33:16.634Z,24.83
2018-11-01T18:35:45.294Z,37.53
2018-11-01T18:38:13.390Z,25.23
2018-11-01T18:40:41.485Z,24.70
2018-11-01T18:43:10.058Z,20.60
2018-11-01T18:45:38.114Z,25.03
2018-11-01T18:48:06.164Z,17.93
2018-11-01T18:50:34.316Z,23.17
2018-11-01T18:53:02.322Z,22.67
2018-11-01T18:55:30.888Z,24.90
2018-11-01T18:57:58.981Z,24.60
2018-11-01T19:00:27.032Z,23.23
2018-11-01T19:02:55.150Z,20.17
2018-11-01T19:05:23.149Z,22.10
2018-11-01T19:07:51.207Z,19.97
2018-11-01T19:10:19.593Z,23.47
2018-11-01T19:12:47.601Z,24.10
2018-11-01T19:15:16.116Z,23.80
2018-11-01T19:17:44.161Z,23.30
2018-11-01T19:20:12.746Z,20.03
2018-11-01T19:22:40.852Z,20.87
2018-11-01T19:25:09.430Z,19.17
2018-11-01T19:27:37.630Z,28.20
2018-11-01T19:30:07.080Z,22.87
2018-11-01T19:32:35.114Z,27.10
2018-11-01T19:35:03.270Z,23.00
2018-11-01T19:37:31.394Z,21.87
2018-11-01T19:39:59.700Z,24.73
2018-11-01T19:42:27.669Z,25.17
2018-11-01T19:44:55.753Z,24.87
2018-11-01T19:47:23.867Z,29.00
2018-11-01T19:49:51.891Z,28.20
2018-11-01T19:52:20.007Z,22.53
2018-11-01T19:54:48.085Z,21.20
2018-11-01T19:57:16.265Z,22.87
2018-11-01T19:59:44.369Z,26.20
2018-11-01T20:02:12.759Z,21.27
2018-11-01T20:04:40.761Z,27.33
2018-11-01T20:07:08.918Z,21.57
2018-11-01T20:09:36.957Z,22.20
2018-11-01T20:12:05.645Z,19.83
2018-11-01T20:14:33.988Z,29.97
2018-11-01T20:17:02.014Z,31.33
2018-11-01T20:19:30.121Z,21.27
2018-11-01T20:21:58.242Z,26.83
2018-11-01T20:24:26.323Z,25.53
2018-11-01T20:26:54.366Z,18.13
2018-11-01T20:29:22.410Z,21.80
2018-11-01T20:31:50.501Z,20.90
2018-11-01T20:34:18.757Z,23.30
2018-11-01T20:36:46.841Z,15.57
2018-11-01T20:39:15.038Z,19.03
2018-11-01T20:41:43.102Z,15.10
2018-11-01T20:44:11.821Z,22.37
2018-11-01T20:46:39.903Z,12.77
2018-11-01T20:49:07.914Z,11.30
2018-11-01T20:51:36.209Z,10.10
2018-11-01T20:54:04.586Z,10.77
2018-11-01T20:56:32.598Z,11.70
2018-11-01T20:59:01.044Z,14.53
2018-11-01T21:01:29.145Z,13.87
2018-11-01T21:03:57.192Z,8.17
2018-11-01T21:06:25.245Z,10.23
2018-11-01T21:08:53.478Z,6.83
2018-11-01T21:11:21.704Z,10.20
2018-11-01T21:13:49.810Z,9.63
2018-11-01T21:16:17.865Z,8.50
2018-11-01T21:18:46.118Z,11.50
2018-11-01T21:21:14.178Z,7.93
2018-11-01T21:23:42.429Z,9.80
2018-11-01T21:26:10.777Z,9.20
2018-11-01T21:28:38.868Z,11.20
2018-11-01T21:31:07.357Z,7.43
2018-11-01T21:33:35.391Z,12.73
2018-11-01T21:36:03.511Z,7.30
2018-11-01T21:38:31.619Z,7.37
2018-11-01T21:40:59.797Z,7.63
2018-11-01T21:43:28.191Z,9.60
2018-11-01T21:45:56.288Z,9.67
2018-11-01T21:48:24.358Z,8.10
2018-11-01T21:50:52.409Z,7.43
2018-11-01T21:53:20.547Z,9.33
2018-11-01T21:55:48.619Z,6.27
2018-11-01T21:58:16.749Z,5.47
2018-11-01T22:00:44.802Z,6.97
2018-11-01T22:03:12.816Z,5.83
2018-11-01T22:05:40.954Z,8.57
2018-11-01T22:08:09.043Z,10.03
2018-11-01T22:10:37.124Z,12.93
2018-11-01T22:13:05.182Z,9.70
2018-11-01T22:15:33.192Z,11.07
2018-11-01T22:18:01.202Z,6.97
2018-11-01T22:20:29.271Z,7.60
2018-11-01T22:22:57.342Z,10.73
2018-11-01T22:25:25.523Z,5.50
2018-11-01T22:27:53.661Z,6.67
2018-11-01T22:30:21.693Z,9.40
2018-11-01T22:32:49.770Z,7.00
2018-11-01T22:35:17.824Z,8.70
2018-11-01T22:37:45.847Z,7.70
2018-11-01T22:40:13.890Z,9.33
2018-11-01T22:42:41.918Z,5.47
2018-11-01T22:45:11.218Z,7.37
2018-11-01T22:47:39.427Z,7.70
2018-11-01T22:50:08.306Z,9.40
2018-11-01T22:52:36.594Z,10.67
2018-11-01T22:55:06.009Z,6.87
2018-11-01T22:57:34.026Z,9.27
2018-11-01T23:00:02.134Z,5.80
2018-11-01T23:02:30.161Z,7.87
2018-11-01T23:04:58.350Z,7.10
2018-11-01T23:07:26.437Z,6.70
2018-11-01T23:09:54.497Z,10.60
2018-11-01T23:12:22.534Z,6.83
2018-11-01T23:14:50.552Z,8.60
2018-11-01T23:17:18.601Z,6.47
2018-11-01T23:19:46.647Z,8.60
2018-11-01T23:22:14.694Z,6.83
2018-11-01T23:24:42.819Z,6.93
2018-11-01T23:27:10.849Z,8.33
2018-11-01T23:29:38.986Z,10.27
2018-11-01T23:32:06.998Z,6.60
2018-11-01T23:34:35.049Z,7.60
2018-11-01T23:37:08.709Z,8.77
2018-11-01T23:39:42.342Z,7.60
2018-11-01T23:42:16.201Z,9.03
2018-11-01T23:44:49.650Z,9.17
2018-11-01T23:47:23.459Z,12.10
2018-11-01T23:49:55.674Z,8.97
2018-11-01T23:52:23.828Z,6.40
2018-11-01T23:54:52.385Z,7.00
2018-11-01T23:57:20.435Z,7.97
2018-11-01T23:59:48.521Z,7.27
